EZY46LX LTBS-EGGP
Flight info
| Callsign | EZY46LX |
|---|---|
| Flight time | N/A |
| Altitude | 28000 |
| Route | KEKIK T476 YOYYO G80 OKESA/N0443F340 UG80 IMR UN127 RIKSO DCT LMO DCT EVIVI L863 OKANA DCT XENIT/N0451F360 DCT BABIT DCT ARSIN DCT DITIS DCT VARIK DCT KATCE DCT RAVLO Y70 POL |
| Aircraft | A320/M-SDE3FGHIRWY/LB1 |
Departure
| Time | 2026-04-10 11:58 |
|---|---|
| Airport | Dalaman International Airport (LTBS) |
Arrival
| Time | N/A |
|---|---|
| Airport | Liverpool John Lennon Airport (EGGP) |
| Time | Latitude | Longitude | Altitude | Speed | Heading |
|---|---|---|---|---|---|
| 2026-04-10 11:41 | 36.72076 | 28.78993 | 12 ft | 0 kts | 285° |
| 2026-04-10 11:46 | 36.72073 | 28.79006 | 12 ft | 4 kts | 285° |
| 2026-04-10 11:46 | 36.72066 | 28.79038 | 12 ft | 4 kts | 291° |
| 2026-04-10 11:46 | 36.72052 | 28.79061 | 12 ft | 4 kts | 345° |
| 2026-04-10 11:47 | 36.72032 | 28.79061 | 12 ft | 2 kts | 16° |
| 2026-04-10 11:47 | 36.72027 | 28.79059 | 12 ft | 0 kts | 16° |
| 2026-04-10 11:51 | 36.72040 | 28.79064 | 12 ft | 4 kts | 16° |
| 2026-04-10 11:51 | 36.72086 | 28.79080 | 12 ft | 9 kts | 16° |
| 2026-04-10 11:51 | 36.72152 | 28.79103 | 12 ft | 9 kts | 15° |
| 2026-04-10 11:52 | 36.72206 | 28.79122 | 12 ft | 7 kts | 15° |
| 2026-04-10 11:52 | 36.72250 | 28.79137 | 12 ft | 6 kts | 15° |
| 2026-04-10 11:52 | 36.72295 | 28.79157 | 12 ft | 8 kts | 37° |
| 2026-04-10 11:52 | 36.72297 | 28.79225 | 12 ft | 9 kts | 104° |
| 2026-04-10 11:53 | 36.72283 | 28.79293 | 14 ft | 9 kts | 103° |
| 2026-04-10 11:53 | 36.72284 | 28.79363 | 12 ft | 8 kts | 52° |
| 2026-04-10 11:53 | 36.72353 | 28.79395 | 12 ft | 13 kts | 16° |
| 2026-04-10 11:53 | 36.72443 | 28.79423 | 12 ft | 14 kts | 15° |
| 2026-04-10 11:54 | 36.72544 | 28.79458 | 12 ft | 14 kts | 14° |
| 2026-04-10 11:54 | 36.72609 | 28.79479 | 12 ft | 5 kts | 14° |
| 2026-04-10 11:54 | 36.72624 | 28.79484 | 12 ft | 0 kts | 15° |
| 2026-04-10 11:55 | 36.72636 | 28.79488 | 12 ft | 4 kts | 15° |
| 2026-04-10 11:55 | 36.72650 | 28.79534 | 12 ft | 9 kts | 96° |
| 2026-04-10 11:55 | 36.72626 | 28.79627 | 12 ft | 12 kts | 109° |
| 2026-04-10 11:55 | 36.72594 | 28.79682 | 12 ft | 6 kts | 168° |
| 2026-04-10 11:56 | 36.72552 | 28.79671 | 12 ft | 11 kts | 195° |
| 2026-04-10 11:56 | 36.72301 | 28.79586 | 12 ft | 71 kts | 195° |
| 2026-04-10 11:56 | 36.71624 | 28.79357 | 12 ft | 128 kts | 195° |
| 2026-04-10 11:56 | 36.70826 | 28.79084 | 24 ft | 163 kts | 195° |
| 2026-04-10 11:58 | 36.70290 | 28.78906 | 246 ft | 164 kts | 198° |
| 2026-04-10 11:58 | 36.69187 | 28.78543 | 955 ft | 163 kts | 201° |
| 2026-04-10 11:58 | 36.68092 | 28.78169 | 1671 ft | 163 kts | 200° |
| 2026-04-10 11:58 | 36.67001 | 28.77795 | 2223 ft | 163 kts | 201° |
| 2026-04-10 11:59 | 36.65906 | 28.77417 | 2750 ft | 164 kts | 201° |
| 2026-04-10 11:59 | 36.64799 | 28.77036 | 3213 ft | 168 kts | 200° |
| 2026-04-10 11:59 | 36.63611 | 28.76611 | 3421 ft | 187 kts | 205° |
| 2026-04-10 11:59 | 36.62598 | 28.75575 | 3584 ft | 198 kts | 247° |
| 2026-04-10 12:00 | 36.62431 | 28.73869 | 3773 ft | 208 kts | 285° |
| 2026-04-10 12:00 | 36.62836 | 28.72043 | 4020 ft | 231 kts | 288° |
| 2026-04-10 12:00 | 36.63326 | 28.70048 | 4451 ft | 248 kts | 295° |
| 2026-04-10 12:00 | 36.64252 | 28.68220 | 5129 ft | 253 kts | 307° |
| 2026-04-10 12:01 | 36.65292 | 28.66445 | 5942 ft | 255 kts | 307° |
| 2026-04-10 12:01 | 36.66340 | 28.64661 | 6750 ft | 255 kts | 307° |
| 2026-04-10 12:01 | 36.67392 | 28.62873 | 7529 ft | 257 kts | 307° |
| 2026-04-10 12:01 | 36.68451 | 28.61072 | 8270 ft | 259 kts | 307° |
| 2026-04-10 12:02 | 36.69527 | 28.59243 | 9001 ft | 263 kts | 306° |
| 2026-04-10 12:02 | 36.70614 | 28.57396 | 9731 ft | 266 kts | 306° |
| 2026-04-10 12:02 | 36.71720 | 28.55515 | 10250 ft | 277 kts | 306° |
| 2026-04-10 12:02 | 36.72904 | 28.53498 | 10402 ft | 300 kts | 306° |
| 2026-04-10 12:03 | 36.74154 | 28.51363 | 10705 ft | 314 kts | 306° |
| 2026-04-10 12:03 | 36.75467 | 28.49118 | 11337 ft | 318 kts | 306° |
| 2026-04-10 12:03 | 36.76773 | 28.46888 | 12032 ft | 319 kts | 306° |
| 2026-04-10 12:03 | 36.78066 | 28.44679 | 12727 ft | 320 kts | 306° |
| 2026-04-10 12:04 | 36.79399 | 28.42399 | 13422 ft | 322 kts | 305° |
| 2026-04-10 12:04 | 36.80719 | 28.40138 | 14069 ft | 323 kts | 305° |
| 2026-04-10 12:04 | 36.82030 | 28.37894 | 14693 ft | 325 kts | 305° |
| 2026-04-10 12:04 | 36.83366 | 28.35605 | 15236 ft | 327 kts | 305° |
| 2026-04-10 12:05 | 36.84710 | 28.33301 | 15825 ft | 329 kts | 305° |
| 2026-04-10 12:05 | 36.86061 | 28.30984 | 16382 ft | 331 kts | 305° |
| 2026-04-10 12:05 | 36.87422 | 28.28648 | 16949 ft | 334 kts | 305° |
| 2026-04-10 12:05 | 36.88792 | 28.26295 | 17478 ft | 336 kts | 305° |
| 2026-04-10 12:06 | 36.90170 | 28.23927 | 18004 ft | 338 kts | 305° |
| 2026-04-10 12:06 | 36.91555 | 28.21542 | 18540 ft | 340 kts | 305° |
| 2026-04-10 12:06 | 36.92950 | 28.19136 | 19003 ft | 342 kts | 305° |
| 2026-04-10 12:06 | 36.94349 | 28.16718 | 19473 ft | 344 kts | 305° |
| 2026-04-10 12:07 | 36.95760 | 28.14279 | 19924 ft | 347 kts | 304° |
| 2026-04-10 12:07 | 36.98601 | 28.09380 | 20901 ft | 349 kts | 304° |
| 2026-04-10 12:07 | 37.00031 | 28.06917 | 21346 ft | 351 kts | 304° |
| 2026-04-10 12:08 | 37.01467 | 28.04439 | 21770 ft | 353 kts | 304° |
| 2026-04-10 12:08 | 37.02910 | 28.01943 | 22212 ft | 355 kts | 304° |
| 2026-04-10 12:08 | 37.04358 | 27.99435 | 22635 ft | 357 kts | 304° |
| 2026-04-10 12:08 | 37.05814 | 27.96907 | 23048 ft | 359 kts | 304° |
| 2026-04-10 12:09 | 37.07280 | 27.94354 | 23447 ft | 362 kts | 304° |
| 2026-04-10 12:09 | 37.08756 | 27.91789 | 23815 ft | 364 kts | 304° |
| 2026-04-10 12:09 | 37.10243 | 27.89208 | 24152 ft | 367 kts | 304° |
| 2026-04-10 12:09 | 37.11741 | 27.86605 | 24489 ft | 369 kts | 304° |
| 2026-04-10 12:10 | 37.13240 | 27.83997 | 24849 ft | 370 kts | 304° |
| 2026-04-10 12:10 | 37.14727 | 27.81406 | 25194 ft | 371 kts | 304° |
| 2026-04-10 12:10 | 37.16236 | 27.78774 | 25523 ft | 373 kts | 304° |
| 2026-04-10 12:10 | 37.17753 | 27.76132 | 25834 ft | 374 kts | 304° |
| 2026-04-10 12:11 | 37.19276 | 27.73477 | 26142 ft | 376 kts | 304° |
| 2026-04-10 12:11 | 37.20805 | 27.70809 | 26454 ft | 378 kts | 304° |
| 2026-04-10 12:11 | 37.22339 | 27.68126 | 26760 ft | 379 kts | 304° |
| 2026-04-10 12:11 | 37.23897 | 27.65393 | 27064 ft | 381 kts | 304° |
| 2026-04-10 12:12 | 37.25422 | 27.62714 | 27361 ft | 383 kts | 304° |
| 2026-04-10 12:12 | 37.27036 | 27.60050 | 27631 ft | 385 kts | 310° |
| 2026-04-10 12:12 | 37.29000 | 27.57741 | 27920 ft | 390 kts | 320° |
| 2026-04-10 12:12 | 37.31304 | 27.55908 | 28207 ft | 396 kts | 329° |
| 2026-04-10 12:13 | 37.33845 | 27.54524 | 28463 ft | 400 kts | 333° |
| 2026-04-10 12:13 | 37.36421 | 27.53187 | 28729 ft | 401 kts | 333° |
| 2026-04-10 12:13 | 37.39003 | 27.51838 | 28986 ft | 403 kts | 333° |
| 2026-04-10 12:13 | 37.41596 | 27.50483 | 29247 ft | 404 kts | 333° |
| 2026-04-10 12:14 | 37.44199 | 27.49114 | 29477 ft | 406 kts | 333° |
| 2026-04-10 12:14 | 37.46804 | 27.47736 | 29694 ft | 407 kts | 333° |
| 2026-04-10 12:14 | 37.49418 | 27.46351 | 29931 ft | 408 kts | 333° |
| 2026-04-10 12:14 | 37.52030 | 27.44944 | 30189 ft | 409 kts | 332° |
| 2026-04-10 12:15 | 37.54625 | 27.43482 | 30458 ft | 408 kts | 332° |
| 2026-04-10 12:15 | 37.57195 | 27.41994 | 30808 ft | 406 kts | 331° |
| 2026-04-10 12:15 | 37.59744 | 27.40504 | 31184 ft | 402 kts | 331° |
| 2026-04-10 12:15 | 37.62273 | 27.39029 | 31557 ft | 399 kts | 331° |
| 2026-04-10 12:16 | 37.64793 | 27.37579 | 31899 ft | 397 kts | 332° |
| 2026-04-10 12:16 | 37.67317 | 27.36175 | 32227 ft | 396 kts | 333° |
| 2026-04-10 12:16 | 37.69846 | 27.34804 | 32559 ft | 394 kts | 333° |
| 2026-04-10 12:16 | 37.72365 | 27.33454 | 32896 ft | 393 kts | 333° |
| 2026-04-10 12:17 | 37.74873 | 27.32111 | 33229 ft | 391 kts | 333° |
| 2026-04-10 12:17 | 37.77366 | 27.30763 | 33569 ft | 389 kts | 333° |
| 2026-04-10 12:17 | 37.79844 | 27.29409 | 33898 ft | 387 kts | 333° |
| 2026-04-10 12:17 | 37.82309 | 27.28053 | 34051 ft | 385 kts | 333° |
| 2026-04-10 12:18 | 37.84745 | 27.26710 | 34057 ft | 380 kts | 333° |
| 2026-04-10 12:18 | 37.89566 | 27.24051 | 34057 ft | 377 kts | 333° |
| 2026-04-10 12:19 | 37.94367 | 27.21408 | 34057 ft | 376 kts | 333° |
| 2026-04-10 12:19 | 37.99172 | 27.18772 | 34054 ft | 376 kts | 333° |
| 2026-04-10 12:20 | 38.03968 | 27.16130 | 34055 ft | 376 kts | 334° |
| 2026-04-10 12:20 | 38.08719 | 27.13507 | 34084 ft | 374 kts | 334° |
| 2026-04-10 12:21 | 38.13474 | 27.10879 | 34085 ft | 371 kts | 334° |
| 2026-04-10 12:21 | 38.18191 | 27.08259 | 34081 ft | 369 kts | 334° |
| 2026-04-10 12:22 | 38.22891 | 27.05656 | 34076 ft | 368 kts | 334° |
| 2026-04-10 12:22 | 38.27582 | 27.03060 | 34068 ft | 367 kts | 334° |
| 2026-04-10 12:23 | 38.31439 | 27.00736 | 34094 ft | 365 kts | 327° |
| 2026-04-10 12:23 | 38.35377 | 26.96719 | 34090 ft | 362 kts | 319° |
| 2026-04-10 12:24 | 38.39145 | 26.92550 | 34084 ft | 360 kts | 319° |
| 2026-04-10 12:24 | 38.42922 | 26.88377 | 34070 ft | 359 kts | 319° |
| 2026-04-10 12:25 | 38.46684 | 26.84213 | 34063 ft | 357 kts | 320° |
| 2026-04-10 12:25 | 38.50435 | 26.80056 | 34064 ft | 356 kts | 320° |
| 2026-04-10 12:26 | 38.54174 | 26.75910 | 34065 ft | 356 kts | 320° |
| 2026-04-10 12:26 | 38.57903 | 26.71763 | 34064 ft | 355 kts | 320° |
| 2026-04-10 12:27 | 38.61624 | 26.67619 | 34096 ft | 354 kts | 320° |
| 2026-04-10 12:27 | 38.65332 | 26.63482 | 34084 ft | 353 kts | 320° |
| 2026-04-10 12:28 | 38.69024 | 26.59360 | 34086 ft | 352 kts | 320° |
| 2026-04-10 12:28 | 38.72709 | 26.55239 | 34071 ft | 351 kts | 320° |
| 2026-04-10 12:29 | 38.76381 | 26.51129 | 34073 ft | 350 kts | 320° |
| 2026-04-10 12:29 | 38.80016 | 26.47048 | 34077 ft | 350 kts | 320° |
| 2026-04-10 12:30 | 38.83674 | 26.42941 | 34076 ft | 349 kts | 320° |
| 2026-04-10 12:30 | 38.87374 | 26.38904 | 34076 ft | 349 kts | 321° |
| 2026-04-10 12:31 | 38.91098 | 26.34921 | 34098 ft | 348 kts | 321° |
| 2026-04-10 12:31 | 38.94807 | 26.30934 | 34093 ft | 347 kts | 320° |
| 2026-04-10 12:32 | 38.98500 | 26.26939 | 34087 ft | 347 kts | 320° |
| 2026-04-10 12:32 | 39.02187 | 26.22935 | 34071 ft | 346 kts | 320° |
| 2026-04-10 12:33 | 39.05863 | 26.18933 | 34074 ft | 346 kts | 320° |
| 2026-04-10 12:33 | 39.09536 | 26.14932 | 34069 ft | 346 kts | 320° |
| 2026-04-10 12:34 | 39.13209 | 26.10932 | 34074 ft | 346 kts | 320° |
| 2026-04-10 12:34 | 39.16879 | 26.06925 | 34094 ft | 345 kts | 320° |
| 2026-04-10 12:35 | 39.20547 | 26.02921 | 34090 ft | 346 kts | 320° |
| 2026-04-10 12:35 | 39.24212 | 25.98914 | 34075 ft | 345 kts | 320° |
| 2026-04-10 12:36 | 39.27870 | 25.94897 | 34063 ft | 346 kts | 320° |
| 2026-04-10 12:36 | 39.31510 | 25.90900 | 34063 ft | 346 kts | 320° |
| 2026-04-10 12:37 | 39.35199 | 25.86849 | 34075 ft | 346 kts | 320° |
| 2026-04-10 12:37 | 39.38842 | 25.82837 | 34076 ft | 346 kts | 320° |
| 2026-04-10 12:38 | 39.42505 | 25.78801 | 34078 ft | 346 kts | 320° |
| 2026-04-10 12:38 | 39.46175 | 25.74756 | 34079 ft | 346 kts | 320° |
| 2026-04-10 12:39 | 39.49842 | 25.70707 | 34083 ft | 346 kts | 320° |
| 2026-04-10 12:39 | 39.53502 | 25.66650 | 34083 ft | 346 kts | 320° |
| 2026-04-10 12:40 | 39.57161 | 25.62587 | 34055 ft | 347 kts | 319° |
| 2026-04-10 12:40 | 39.60833 | 25.58514 | 34064 ft | 348 kts | 319° |
| 2026-04-10 12:41 | 39.64520 | 25.54418 | 34070 ft | 349 kts | 319° |
| 2026-04-10 12:41 | 39.68208 | 25.50307 | 34071 ft | 350 kts | 319° |
| 2026-04-10 12:42 | 39.71903 | 25.46182 | 34098 ft | 350 kts | 319° |
| 2026-04-10 12:42 | 39.75597 | 25.42055 | 34096 ft | 350 kts | 319° |
| 2026-04-10 12:43 | 39.79293 | 25.37929 | 34093 ft | 350 kts | 319° |
| 2026-04-10 12:43 | 39.82987 | 25.33799 | 34091 ft | 350 kts | 319° |
| 2026-04-10 12:44 | 39.86675 | 25.29651 | 34100 ft | 351 kts | 319° |
| 2026-04-10 12:44 | 39.90365 | 25.25492 | 34098 ft | 351 kts | 319° |
| 2026-04-10 12:45 | 39.94050 | 25.21322 | 34099 ft | 351 kts | 318° |
| 2026-04-10 12:45 | 39.97685 | 25.17079 | 34099 ft | 351 kts | 317° |
| 2026-04-10 12:46 | 40.01312 | 25.12815 | 34099 ft | 351 kts | 317° |
| 2026-04-10 12:46 | 40.04918 | 25.08581 | 34096 ft | 351 kts | 317° |
| 2026-04-10 12:47 | 40.08554 | 25.04315 | 34089 ft | 351 kts | 317° |
| 2026-04-10 12:47 | 40.12186 | 25.00053 | 34053 ft | 351 kts | 318° |
| 2026-04-10 12:48 | 40.15830 | 24.95774 | 34063 ft | 352 kts | 318° |
| 2026-04-10 12:48 | 40.19481 | 24.91486 | 34069 ft | 353 kts | 318° |
| 2026-04-10 12:49 | 40.23135 | 24.87184 | 34074 ft | 354 kts | 318° |
| 2026-04-10 12:49 | 40.26792 | 24.82865 | 34114 ft | 354 kts | 317° |
| 2026-04-10 12:50 | 40.30447 | 24.78546 | 34112 ft | 354 kts | 317° |
| 2026-04-10 12:50 | 40.34102 | 24.74226 | 34106 ft | 354 kts | 317° |
| 2026-04-10 12:51 | 40.37750 | 24.69897 | 34104 ft | 354 kts | 317° |
| 2026-04-10 12:51 | 40.41401 | 24.65560 | 34101 ft | 354 kts | 317° |
| 2026-04-10 12:52 | 40.45046 | 24.61222 | 34093 ft | 354 kts | 317° |
| 2026-04-10 12:52 | 40.48691 | 24.56882 | 34094 ft | 354 kts | 317° |
| 2026-04-10 12:53 | 40.52336 | 24.52534 | 34093 ft | 354 kts | 317° |
| 2026-04-10 12:53 | 40.55977 | 24.48188 | 34121 ft | 353 kts | 317° |
| 2026-04-10 12:54 | 40.59611 | 24.43831 | 34116 ft | 353 kts | 317° |
| 2026-04-10 12:54 | 40.63238 | 24.39482 | 34107 ft | 353 kts | 317° |
| 2026-04-10 12:55 | 40.66864 | 24.35134 | 34066 ft | 353 kts | 317° |
| 2026-04-10 12:55 | 40.70495 | 24.30768 | 34067 ft | 353 kts | 317° |
| 2026-04-10 12:56 | 40.74129 | 24.26398 | 34072 ft | 354 kts | 317° |
| 2026-04-10 12:56 | 40.77762 | 24.22019 | 34072 ft | 354 kts | 317° |
| 2026-04-10 12:57 | 40.81390 | 24.17627 | 34072 ft | 354 kts | 317° |
| 2026-04-10 12:57 | 40.85003 | 24.13259 | 34083 ft | 354 kts | 317° |
| 2026-04-10 12:58 | 40.88637 | 24.08862 | 34065 ft | 354 kts | 317° |
| 2026-04-10 12:58 | 40.92297 | 24.04428 | 34060 ft | 355 kts | 317° |
| 2026-04-10 12:59 | 40.95912 | 24.00028 | 34050 ft | 355 kts | 317° |
| 2026-04-10 12:59 | 40.99546 | 23.95600 | 34052 ft | 355 kts | 317° |
| 2026-04-10 13:00 | 41.03182 | 23.91170 | 34051 ft | 355 kts | 317° |
| 2026-04-10 13:00 | 41.06845 | 23.86706 | 34043 ft | 356 kts | 317° |
| 2026-04-10 13:01 | 41.10461 | 23.82285 | 34060 ft | 356 kts | 317° |
| 2026-04-10 13:01 | 41.14097 | 23.77828 | 34056 ft | 356 kts | 317° |
| 2026-04-10 13:02 | 41.17729 | 23.73368 | 34018 ft | 355 kts | 317° |
| 2026-04-10 13:02 | 41.21364 | 23.68902 | 34029 ft | 357 kts | 317° |
| 2026-04-10 13:03 | 41.25010 | 23.64417 | 34027 ft | 357 kts | 317° |
| 2026-04-10 13:03 | 41.28658 | 23.59922 | 34042 ft | 358 kts | 316° |
| 2026-04-10 13:04 | 41.32310 | 23.55418 | 34044 ft | 358 kts | 316° |
| 2026-04-10 13:04 | 41.35957 | 23.50900 | 34064 ft | 358 kts | 316° |
| 2026-04-10 13:05 | 41.39633 | 23.46423 | 34056 ft | 358 kts | 321° |
| 2026-04-10 13:05 | 41.43954 | 23.43165 | 34056 ft | 361 kts | 330° |
| 2026-04-10 13:06 | 41.48463 | 23.40235 | 34033 ft | 360 kts | 330° |
| 2026-04-10 13:06 | 41.52968 | 23.37293 | 34034 ft | 361 kts | 330° |
| 2026-04-10 13:07 | 41.57477 | 23.34342 | 34046 ft | 360 kts | 330° |
| 2026-04-10 13:07 | 41.61981 | 23.31391 | 34058 ft | 361 kts | 331° |
| 2026-04-10 13:08 | 41.66488 | 23.28440 | 34051 ft | 361 kts | 331° |
| 2026-04-10 13:08 | 41.70997 | 23.25490 | 34045 ft | 361 kts | 331° |
| 2026-04-10 13:09 | 41.77758 | 23.21039 | 34058 ft | 361 kts | 331° |
| 2026-04-10 13:09 | 41.82258 | 23.18071 | 34078 ft | 360 kts | 330° |
| 2026-04-10 13:10 | 41.86757 | 23.15101 | 34069 ft | 361 kts | 330° |
| 2026-04-10 13:10 | 41.91262 | 23.12124 | 34074 ft | 361 kts | 330° |
| 2026-04-10 13:11 | 41.95043 | 23.09617 | 34039 ft | 362 kts | 331° |
| 2026-04-10 13:11 | 41.99559 | 23.06615 | 34046 ft | 363 kts | 331° |
| 2026-04-10 13:12 | 42.04089 | 23.03612 | 34057 ft | 363 kts | 331° |
| 2026-04-10 13:12 | 42.08624 | 23.00600 | 34079 ft | 363 kts | 331° |
| 2026-04-10 13:13 | 42.13154 | 22.97588 | 34073 ft | 363 kts | 331° |
| 2026-04-10 13:13 | 42.17685 | 22.94567 | 34075 ft | 363 kts | 331° |
| 2026-04-10 13:14 | 42.22216 | 22.91538 | 34087 ft | 363 kts | 330° |
| 2026-04-10 13:14 | 42.26745 | 22.88507 | 34082 ft | 363 kts | 331° |
| 2026-04-10 13:15 | 42.31240 | 22.85491 | 34098 ft | 363 kts | 330° |
| 2026-04-10 13:15 | 42.35797 | 22.82426 | 34095 ft | 364 kts | 330° |
| 2026-04-10 13:16 | 42.40301 | 22.79395 | 34099 ft | 363 kts | 330° |
| 2026-04-10 13:16 | 42.44828 | 22.76343 | 34064 ft | 364 kts | 330° |
| 2026-04-10 13:17 | 42.49360 | 22.73292 | 34064 ft | 364 kts | 330° |
| 2026-04-10 13:17 | 42.53891 | 22.70233 | 34071 ft | 364 kts | 330° |
| 2026-04-10 13:18 | 42.58425 | 22.67155 | 34074 ft | 364 kts | 330° |
| 2026-04-10 13:18 | 42.62958 | 22.64077 | 34079 ft | 364 kts | 330° |
| 2026-04-10 13:19 | 42.67491 | 22.60998 | 34092 ft | 364 kts | 330° |
| 2026-04-10 13:19 | 42.72026 | 22.57917 | 34106 ft | 364 kts | 330° |
| 2026-04-10 13:20 | 42.76570 | 22.54825 | 34087 ft | 365 kts | 330° |
| 2026-04-10 13:20 | 42.81115 | 22.51718 | 34094 ft | 366 kts | 330° |
| 2026-04-10 13:21 | 42.85530 | 22.48322 | 34076 ft | 364 kts | 321° |
| 2026-04-10 13:21 | 42.89472 | 22.43994 | 34081 ft | 364 kts | 320° |
| 2026-04-10 13:22 | 42.93408 | 22.39652 | 34088 ft | 364 kts | 320° |
| 2026-04-10 13:22 | 42.97344 | 22.35307 | 34119 ft | 364 kts | 320° |
| 2026-04-10 13:23 | 43.01284 | 22.30952 | 34109 ft | 365 kts | 320° |
| 2026-04-10 13:23 | 43.05229 | 22.26594 | 34085 ft | 364 kts | 320° |
| 2026-04-10 13:24 | 43.09159 | 22.22234 | 34088 ft | 363 kts | 320° |
| 2026-04-10 13:24 | 43.13075 | 22.17866 | 34094 ft | 363 kts | 320° |
| 2026-04-10 13:25 | 43.16994 | 22.13504 | 34098 ft | 363 kts | 320° |
| 2026-04-10 13:25 | 43.20890 | 22.09170 | 34139 ft | 363 kts | 320° |
| 2026-04-10 13:26 | 43.24804 | 22.04802 | 34100 ft | 363 kts | 320° |
| 2026-04-10 13:26 | 43.28709 | 22.00426 | 34100 ft | 363 kts | 320° |
| 2026-04-10 13:27 | 43.32620 | 21.96044 | 34104 ft | 363 kts | 320° |
| 2026-04-10 13:27 | 43.36522 | 21.91658 | 34104 ft | 362 kts | 320° |
| 2026-04-10 13:28 | 43.40429 | 21.87269 | 34102 ft | 363 kts | 320° |
| 2026-04-10 13:28 | 43.44331 | 21.82875 | 34100 ft | 363 kts | 320° |
| 2026-04-10 13:29 | 43.48237 | 21.78461 | 34113 ft | 363 kts | 320° |
| 2026-04-10 13:29 | 43.52147 | 21.74030 | 34104 ft | 364 kts | 320° |
| 2026-04-10 13:30 | 43.56061 | 21.69603 | 34098 ft | 364 kts | 320° |
| 2026-04-10 13:30 | 43.59976 | 21.65166 | 34093 ft | 364 kts | 320° |
| 2026-04-10 13:31 | 43.63892 | 21.60713 | 34069 ft | 365 kts | 321° |
| 2026-04-10 13:31 | 43.67812 | 21.56261 | 34075 ft | 365 kts | 321° |
| 2026-04-10 13:32 | 43.71729 | 21.51790 | 34111 ft | 365 kts | 321° |
| 2026-04-10 13:32 | 43.75652 | 21.47308 | 34107 ft | 366 kts | 321° |
| 2026-04-10 13:33 | 43.79574 | 21.42826 | 34104 ft | 366 kts | 321° |
| 2026-04-10 13:33 | 43.83470 | 21.38364 | 34082 ft | 366 kts | 321° |
| 2026-04-10 13:34 | 43.87383 | 21.33867 | 34087 ft | 365 kts | 321° |
| 2026-04-10 13:34 | 43.91293 | 21.29369 | 34095 ft | 365 kts | 321° |
| 2026-04-10 13:35 | 43.95196 | 21.24874 | 34100 ft | 365 kts | 321° |
| 2026-04-10 13:35 | 43.99091 | 21.20373 | 34120 ft | 364 kts | 321° |
| 2026-04-10 13:36 | 44.02984 | 21.15865 | 34119 ft | 364 kts | 321° |
| 2026-04-10 13:36 | 44.06869 | 21.11372 | 34103 ft | 363 kts | 322° |
| 2026-04-10 13:37 | 44.10736 | 21.06891 | 34110 ft | 361 kts | 322° |
| 2026-04-10 13:37 | 44.14586 | 21.02410 | 34108 ft | 360 kts | 321° |
| 2026-04-10 13:38 | 44.18429 | 20.97928 | 34113 ft | 360 kts | 321° |
| 2026-04-10 13:38 | 44.22262 | 20.93453 | 34138 ft | 360 kts | 321° |
| 2026-04-10 13:39 | 44.26096 | 20.88980 | 34090 ft | 359 kts | 322° |
| 2026-04-10 13:39 | 44.29914 | 20.84509 | 34098 ft | 357 kts | 322° |
| 2026-04-10 13:40 | 44.33715 | 20.80052 | 34098 ft | 356 kts | 322° |
| 2026-04-10 13:40 | 44.37554 | 20.75685 | 34100 ft | 356 kts | 323° |
| 2026-04-10 13:41 | 44.41407 | 20.71359 | 34096 ft | 355 kts | 323° |
| 2026-04-10 13:41 | 44.45221 | 20.67048 | 34075 ft | 354 kts | 323° |
| 2026-04-10 13:42 | 44.49040 | 20.62703 | 34115 ft | 353 kts | 322° |
| 2026-04-10 13:42 | 44.52852 | 20.58357 | 34112 ft | 353 kts | 322° |
| 2026-04-10 13:43 | 44.56655 | 20.54016 | 34104 ft | 352 kts | 322° |
| 2026-04-10 13:43 | 44.60450 | 20.49666 | 34106 ft | 352 kts | 322° |
| 2026-04-10 13:44 | 44.64245 | 20.45315 | 34098 ft | 352 kts | 322° |
| 2026-04-10 13:44 | 44.68040 | 20.40964 | 34087 ft | 351 kts | 322° |
| 2026-04-10 13:45 | 44.71811 | 20.36627 | 34116 ft | 349 kts | 322° |
| 2026-04-10 13:45 | 44.75564 | 20.32303 | 34140 ft | 348 kts | 322° |
| 2026-04-10 13:46 | 44.79310 | 20.27980 | 34122 ft | 348 kts | 322° |
| 2026-04-10 13:46 | 44.83057 | 20.23654 | 34121 ft | 348 kts | 322° |
| 2026-04-10 13:47 | 44.86799 | 20.19321 | 34119 ft | 348 kts | 322° |
| 2026-04-10 13:47 | 44.90532 | 20.14990 | 34109 ft | 347 kts | 322° |
| 2026-04-10 13:48 | 44.94252 | 20.10667 | 34114 ft | 346 kts | 322° |
| 2026-04-10 13:48 | 44.97962 | 20.06353 | 34116 ft | 345 kts | 322° |
| 2026-04-10 13:49 | 45.01641 | 20.02056 | 34110 ft | 345 kts | 322° |
| 2026-04-10 13:49 | 45.05337 | 19.97732 | 34109 ft | 345 kts | 322° |
| 2026-04-10 13:50 | 45.09031 | 19.93409 | 34081 ft | 344 kts | 322° |
| 2026-04-10 13:50 | 45.12720 | 19.89090 | 34096 ft | 343 kts | 322° |
| 2026-04-10 13:51 | 45.16392 | 19.84780 | 34103 ft | 343 kts | 322° |
| 2026-04-10 13:51 | 45.20059 | 19.80468 | 34105 ft | 342 kts | 322° |
| 2026-04-10 13:52 | 45.23715 | 19.76162 | 34135 ft | 341 kts | 322° |
| 2026-04-10 13:52 | 45.27366 | 19.71847 | 34125 ft | 342 kts | 322° |
| 2026-04-10 13:53 | 45.31021 | 19.67533 | 34071 ft | 342 kts | 321° |
| 2026-04-10 13:53 | 45.34673 | 19.63214 | 34091 ft | 341 kts | 321° |
| 2026-04-10 13:54 | 45.38311 | 19.58893 | 34105 ft | 340 kts | 321° |
| 2026-04-10 13:54 | 45.41913 | 19.54603 | 34106 ft | 340 kts | 321° |
| 2026-04-10 13:55 | 45.45534 | 19.50290 | 34106 ft | 339 kts | 321° |
| 2026-04-10 13:55 | 45.49153 | 19.45977 | 34101 ft | 339 kts | 321° |